Terminal Aerodrome Forecast
Issued by NWS

Home | Current Version | Previous Version | Text Only | Print | Product List | Glossary On
Versions: 1 2 3 4 5 6 7 8 9 10 11 12 13 14 15
000
FTUS45 KFGZ 142300
TAFGCN
TAF
KGCN 142336Z 1500/1524 08010KT P6SM SCT110
     FM150200 VRB03KT P6SM FEW110
     FM151900 07008KT P6SM SCT070 PROB30 1520/1524 VRB15G28KT 5SM
      TSRA BKN070CB=

USA.gov is the U.S. government's official web portal to all federal, state and local government web resources and services.